createdAt,value
2023-04-23T00:01:58.087Z,7.33
2023-04-23T00:04:27.011Z,7.03
2023-04-23T00:06:55.245Z,6.60
2023-04-23T00:09:24.751Z,7.70
2023-04-23T00:11:53.202Z,7.03
2023-04-23T00:14:21.220Z,7.50
2023-04-23T00:16:49.546Z,7.90
2023-04-23T00:19:17.319Z,7.30
2023-04-23T00:21:45.120Z,8.63
2023-04-23T00:24:12.832Z,8.20
2023-04-23T00:26:42.041Z,9.73
2023-04-23T00:29:09.637Z,7.63
2023-04-23T00:31:37.426Z,7.90
2023-04-23T00:34:05.134Z,7.33
2023-04-23T00:36:32.919Z,7.63
2023-04-23T00:39:00.578Z,9.27
2023-04-23T00:41:29.273Z,8.03
2023-04-23T00:43:59.406Z,7.70
2023-04-23T00:46:27.641Z,8.53
2023-04-23T00:48:55.722Z,7.17
2023-04-23T00:51:24.584Z,7.37
2023-04-23T00:53:52.908Z,7.50
2023-04-23T00:56:20.880Z,7.40
2023-04-23T00:58:50.877Z,8.20
2023-04-23T01:01:20.738Z,7.60
2023-04-23T01:03:50.465Z,7.20
2023-04-23T01:06:18.797Z,8.53
2023-04-23T01:08:46.996Z,7.30
2023-04-23T01:11:15.608Z,7.50
2023-04-23T01:13:44.044Z,7.20
2023-04-23T01:16:12.548Z,6.90
2023-04-23T01:18:42.099Z,7.47
2023-04-23T01:21:11.526Z,7.23
2023-04-23T01:23:41.068Z,7.03
2023-04-23T01:26:10.696Z,7.00
2023-04-23T01:28:38.747Z,7.43
2023-04-23T01:31:15.496Z,7.00
2023-04-23T01:33:44.040Z,7.53
2023-04-23T01:36:12.273Z,7.03
2023-04-23T01:38:42.060Z,9.63
2023-04-23T01:41:10.578Z,7.33
2023-04-23T01:43:38.641Z,8.00
2023-04-23T01:46:06.758Z,8.10
2023-04-23T01:48:34.919Z,7.87
2023-04-23T01:51:03.021Z,8.63
2023-04-23T01:53:31.281Z,7.57
2023-04-23T01:56:02.312Z,7.93
2023-04-23T01:58:30.500Z,8.17
2023-04-23T02:00:58.189Z,8.87
2023-04-23T02:03:26.264Z,7.70
2023-04-23T02:05:55.518Z,7.57
2023-04-23T02:08:23.365Z,8.17
2023-04-23T02:10:50.940Z,9.07
2023-04-23T02:13:19.915Z,7.93
2023-04-23T02:15:47.570Z,8.33
2023-04-23T02:18:15.237Z,7.17
2023-04-23T02:20:42.877Z,7.90
2023-04-23T02:23:10.625Z,7.47
2023-04-23T02:25:39.299Z,7.47
2023-04-23T02:28:07.666Z,7.03
2023-04-23T02:30:37.079Z,6.77
2023-04-23T02:33:05.088Z,7.00
2023-04-23T02:35:32.708Z,7.57
2023-04-23T02:38:00.255Z,7.33
2023-04-23T02:40:27.842Z,8.17
2023-04-23T02:42:55.756Z,8.17
2023-04-23T02:45:23.338Z,7.37
2023-04-23T02:47:53.389Z,8.43
2023-04-23T02:50:21.363Z,7.37
2023-04-23T02:52:49.794Z,7.37
2023-04-23T02:55:17.719Z,7.03
2023-04-23T02:57:45.463Z,7.57
2023-04-23T03:00:15.150Z,7.57
2023-04-23T03:02:42.940Z,6.57
2023-04-23T03:05:12.690Z,7.70
2023-04-23T03:07:40.610Z,7.40
2023-04-23T03:10:09.355Z,8.10
2023-04-23T03:12:36.982Z,7.20
2023-04-23T03:15:05.012Z,6.90
2023-04-23T03:17:32.598Z,7.00
2023-04-23T03:20:00.846Z,7.20
2023-04-23T03:22:29.758Z,6.77
2023-04-23T03:24:57.406Z,7.43
2023-04-23T03:27:24.982Z,7.40
2023-04-23T03:29:52.602Z,7.83
2023-04-23T03:32:20.298Z,7.10
2023-04-23T03:34:47.956Z,7.23
2023-04-23T03:37:15.610Z,6.73
2023-04-23T03:39:44.591Z,7.30
2023-04-23T03:42:12.174Z,7.00
2023-04-23T03:44:40.070Z,6.07
2023-04-23T03:47:07.875Z,6.03
2023-04-23T03:49:35.516Z,6.23
2023-04-23T03:52:03.175Z,7.17
2023-04-23T03:54:30.882Z,6.90
2023-04-23T03:57:00.346Z,6.57
2023-04-23T03:59:28.012Z,6.70
2023-04-23T04:01:55.594Z,6.53
2023-04-23T04:04:23.328Z,6.27
2023-04-23T04:06:51.176Z,6.83
2023-04-23T04:09:18.878Z,7.00
2023-04-23T04:11:46.801Z,6.80
2023-04-23T04:14:15.841Z,6.80
2023-04-23T04:16:43.425Z,6.87
2023-04-23T04:19:11.034Z,6.93
2023-04-23T04:21:38.695Z,6.23
2023-04-23T04:24:06.681Z,6.83
2023-04-23T04:26:34.833Z,6.20
2023-04-23T04:29:02.666Z,6.63
2023-04-23T04:31:32.278Z,6.90
2023-04-23T04:33:59.970Z,6.30
2023-04-23T04:36:28.890Z,6.40
2023-04-23T04:38:58.556Z,5.90
2023-04-23T04:41:27.663Z,5.43
2023-04-23T04:43:55.720Z,4.97
2023-04-23T04:46:23.447Z,5.37
2023-04-23T04:48:52.424Z,5.13
2023-04-23T04:51:20.030Z,5.70
2023-04-23T04:53:47.640Z,5.73
2023-04-23T04:56:15.344Z,5.97
2023-04-23T04:58:42.947Z,5.00
2023-04-23T05:01:10.930Z,5.30
2023-04-23T05:03:39.373Z,5.13
2023-04-23T05:06:08.728Z,4.60
2023-04-23T05:08:36.424Z,5.23
2023-04-23T05:11:05.066Z,5.30
2023-04-23T05:13:32.885Z,7.40
2023-04-23T05:16:00.659Z,5.70
2023-04-23T05:18:28.875Z,4.97
2023-04-23T05:20:56.565Z,6.10
2023-04-23T05:23:25.690Z,5.37
2023-04-23T05:25:55.915Z,5.63
2023-04-23T05:28:23.707Z,5.87
2023-04-23T05:30:51.775Z,6.00
2023-04-23T05:33:19.444Z,5.90
2023-04-23T05:35:47.214Z,5.93
2023-04-23T05:38:14.829Z,6.23
2023-04-23T05:40:43.784Z,6.73
2023-04-23T05:43:11.448Z,6.27
2023-04-23T05:45:39.118Z,5.90
2023-04-23T05:48:06.813Z,6.13
2023-04-23T05:50:34.384Z,5.90
2023-04-23T05:53:02.039Z,6.13
2023-04-23T05:55:29.740Z,7.17
2023-04-23T05:57:58.705Z,7.80
2023-04-23T06:00:26.338Z,6.10
2023-04-23T06:02:54.191Z,7.87
2023-04-23T06:05:22.296Z,6.70
2023-04-23T06:07:50.152Z,7.40
2023-04-23T06:10:17.789Z,6.37
2023-04-23T06:12:45.550Z,6.53
2023-04-23T06:15:14.545Z,6.27
2023-04-23T06:17:42.219Z,8.10
2023-04-23T06:20:11.743Z,5.93
2023-04-23T06:22:39.613Z,5.97
2023-04-23T06:25:07.994Z,5.57
2023-04-23T06:27:35.555Z,5.47
2023-04-23T06:30:03.375Z,6.80
2023-04-23T06:32:32.321Z,6.07
2023-04-23T06:35:01.998Z,6.60
2023-04-23T06:37:31.589Z,6.60
2023-04-23T06:40:00.052Z,5.97
2023-04-23T06:42:27.688Z,8.33
2023-04-23T06:44:55.742Z,6.50
2023-04-23T06:47:23.523Z,5.73
2023-04-23T06:49:52.506Z,5.83
2023-04-23T06:52:20.202Z,5.13
2023-04-23T06:54:47.788Z,5.30
2023-04-23T06:57:16.114Z,5.83
2023-04-23T06:59:43.726Z,5.10
2023-04-23T07:02:11.779Z,4.87
2023-04-23T07:04:39.543Z,6.63
2023-04-23T07:07:08.671Z,5.53
2023-04-23T07:09:36.325Z,4.57
2023-04-23T07:12:04.034Z,4.73
2023-04-23T07:14:31.645Z,4.57
2023-04-23T07:16:59.910Z,5.13
2023-04-23T07:19:27.584Z,4.40
2023-04-23T07:21:55.254Z,5.13
2023-04-23T07:24:26.370Z,4.83
2023-04-23T07:26:53.969Z,4.10
2023-04-23T07:29:21.820Z,4.30
2023-04-23T07:31:49.384Z,4.20
2023-04-23T07:34:17.073Z,5.43
2023-04-23T07:36:44.818Z,4.60
2023-04-23T07:39:12.715Z,4.30
2023-04-23T07:41:41.944Z,5.93
2023-04-23T07:44:09.600Z,5.67
2023-04-23T07:46:37.304Z,4.43
2023-04-23T07:49:04.858Z,4.40
2023-04-23T07:51:32.415Z,3.77
2023-04-23T07:54:00.235Z,7.17
2023-04-23T07:56:28.000Z,3.97
2023-04-23T07:58:58.249Z,3.10
2023-04-23T08:01:26.078Z,3.43
2023-04-23T08:03:59.157Z,3.27
2023-04-23T08:06:27.782Z,4.17
2023-04-23T08:08:56.085Z,5.73
2023-04-23T08:11:23.735Z,4.07
2023-04-23T08:13:51.400Z,3.57
2023-04-23T08:16:20.525Z,2.87
2023-04-23T08:19:03.760Z,2.70
2023-04-23T08:21:32.977Z,3.50
2023-04-23T08:24:01.195Z,4.53
2023-04-23T08:26:28.787Z,4.70
2023-04-23T08:28:56.692Z,3.43
2023-04-23T08:31:27.185Z,3.93
2023-04-23T08:33:55.229Z,3.93
2023-04-23T08:36:22.849Z,4.43
2023-04-23T08:38:50.409Z,3.70
2023-04-23T08:41:21.189Z,2.50
2023-04-23T08:43:52.296Z,3.87
2023-04-23T08:46:21.140Z,3.17
2023-04-23T08:48:54.152Z,4.07
2023-04-23T08:51:23.241Z,2.90
2023-04-23T08:53:53.265Z,3.07
2023-04-23T08:56:21.207Z,3.83
2023-04-23T08:58:49.868Z,2.63
2023-04-23T09:01:17.674Z,2.53
2023-04-23T09:03:46.029Z,2.23
2023-04-23T09:06:15.160Z,3.20
2023-04-23T09:08:43.140Z,5.07
2023-04-23T09:11:10.743Z,3.77
2023-04-23T09:13:38.434Z,2.10
2023-04-23T09:16:06.427Z,3.30
2023-04-23T09:18:34.101Z,3.60
2023-04-23T09:21:03.973Z,2.77
2023-04-23T09:23:34.536Z,2.30
2023-04-23T09:26:07.075Z,1.67
2023-04-23T09:28:38.137Z,2.87
2023-04-23T09:31:06.485Z,2.53
2023-04-23T09:33:36.297Z,3.43
2023-04-23T09:36:07.057Z,2.93
2023-04-23T09:38:36.032Z,2.13
2023-04-23T09:41:21.866Z,2.93
2023-04-23T09:43:49.745Z,2.10
2023-04-23T09:46:17.305Z,1.73
2023-04-23T09:48:45.975Z,2.30
2023-04-23T09:51:14.939Z,3.30
2023-04-23T09:53:45.829Z,2.03
2023-04-23T09:56:13.434Z,5.03
2023-04-23T09:58:40.998Z,2.43
2023-04-23T10:01:09.397Z,4.00
2023-04-23T10:03:38.582Z,3.03
2023-04-23T10:06:17.263Z,3.07
2023-04-23T10:08:54.656Z,2.13
2023-04-23T10:11:22.426Z,2.53
2023-04-23T10:13:50.479Z,2.73
2023-04-23T10:16:24.423Z,1.93
2023-04-23T10:18:56.999Z,2.70
2023-04-23T10:21:30.667Z,2.93
2023-04-23T10:24:07.242Z,2.33
2023-04-23T10:26:36.030Z,2.70
2023-04-23T10:29:04.150Z,2.43
2023-04-23T10:31:33.602Z,9.73
2023-04-23T10:34:01.985Z,1.90
2023-04-23T10:36:29.827Z,2.80
2023-04-23T10:39:00.777Z,1.87
2023-04-23T10:41:37.342Z,3.03
2023-04-23T10:44:05.750Z,2.73
2023-04-23T10:46:36.434Z,1.73
2023-04-23T10:49:07.499Z,2.90
2023-04-23T10:52:14.584Z,3.37
2023-04-23T10:54:23.337Z,2.60
2023-04-23T10:56:59.657Z,2.17
2023-04-23T10:59:29.484Z,4.47
2023-04-23T11:01:58.818Z,2.47
2023-04-23T11:04:28.776Z,3.50
2023-04-23T11:06:58.730Z,1.83
2023-04-23T11:09:30.628Z,3.07
2023-04-23T11:11:59.883Z,2.03
2023-04-23T11:14:38.532Z,6.03
2023-04-23T11:17:07.369Z,2.57
2023-04-23T11:19:36.968Z,2.20
2023-04-23T11:22:06.521Z,3.53
2023-04-23T11:24:37.064Z,2.27
2023-04-23T11:27:08.438Z,2.77
2023-04-23T11:29:36.028Z,4.93
2023-04-23T11:32:05.343Z,2.87
2023-04-23T11:34:34.081Z,2.90
2023-04-23T11:37:04.836Z,3.03
2023-04-23T11:39:32.425Z,4.53
2023-04-23T11:42:02.948Z,2.83
2023-04-23T11:44:32.267Z,2.20
2023-04-23T11:47:02.178Z,2.23
2023-04-23T11:49:29.864Z,3.77
2023-04-23T11:52:00.442Z,1.40
2023-04-23T11:54:29.495Z,1.80
2023-04-23T11:56:58.010Z,2.13
2023-04-23T11:59:25.805Z,2.10
2023-04-23T12:01:56.103Z,1.60
2023-04-23T12:04:24.958Z,2.10
2023-04-23T12:06:54.601Z,4.33
2023-04-23T12:09:23.019Z,4.27
2023-04-23T12:11:52.010Z,3.10
2023-04-23T12:14:23.883Z,3.30
2023-04-23T12:16:52.413Z,4.33
2023-04-23T12:19:27.594Z,2.03
2023-04-23T12:21:57.071Z,2.33
2023-04-23T12:24:26.124Z,2.67
2023-04-23T12:26:55.951Z,1.60
2023-04-23T12:29:24.130Z,3.10
2023-04-23T12:31:53.243Z,1.80
2023-04-23T12:34:22.522Z,3.60
2023-04-23T12:36:51.405Z,2.80
2023-04-23T12:39:23.810Z,3.67
2023-04-23T12:41:52.404Z,3.60
2023-04-23T12:44:20.161Z,1.97
2023-04-23T12:46:51.037Z,2.30
2023-04-23T12:49:18.814Z,2.40
2023-04-23T12:51:48.100Z,3.07
2023-04-23T12:54:15.668Z,1.60
2023-04-23T12:56:43.286Z,1.70
2023-04-23T12:59:11.859Z,2.83
2023-04-23T13:01:39.522Z,1.97
2023-04-23T13:04:07.832Z,5.70
2023-04-23T13:06:35.795Z,1.93
2023-04-23T13:09:05.351Z,4.07
2023-04-23T13:11:33.283Z,2.23
2023-04-23T13:14:00.896Z,2.10
2023-04-23T13:16:28.576Z,2.53
2023-04-23T13:18:56.360Z,2.73
2023-04-23T13:21:26.218Z,1.50
2023-04-23T13:23:54.408Z,3.90
2023-04-23T13:26:23.536Z,1.80
2023-04-23T13:28:51.240Z,1.20
2023-04-23T13:31:18.877Z,3.33
2023-04-23T13:33:46.552Z,1.77
2023-04-23T13:36:14.168Z,4.60
2023-04-23T13:38:41.807Z,1.33
2023-04-23T13:41:09.420Z,4.20
2023-04-23T13:43:38.416Z,2.83
2023-04-23T13:46:06.154Z,1.93
2023-04-23T13:48:33.884Z,1.70
2023-04-23T13:51:02.235Z,4.20
2023-04-23T13:53:30.072Z,1.90
2023-04-23T13:55:58.117Z,1.93
2023-04-23T13:58:25.810Z,2.30
2023-04-23T14:00:54.711Z,1.40
2023-04-23T14:03:22.460Z,2.27
2023-04-23T14:05:50.187Z,3.23
2023-04-23T14:08:17.837Z,1.77
2023-04-23T14:10:45.667Z,2.90
2023-04-23T14:13:13.332Z,2.20
2023-04-23T14:15:42.662Z,2.70
2023-04-23T14:18:11.925Z,2.10
2023-04-23T14:20:39.594Z,3.53
2023-04-23T14:23:46.879Z,1.67
2023-04-23T14:26:29.522Z,1.60
2023-04-23T14:29:05.318Z,1.57
2023-04-23T14:31:34.005Z,2.07
2023-04-23T14:34:02.996Z,1.93
2023-04-23T14:36:30.704Z,2.83
2023-04-23T14:39:04.804Z,1.40
2023-04-23T14:41:32.862Z,1.63
2023-04-23T14:44:01.902Z,2.30
2023-04-23T14:46:29.707Z,2.17
2023-04-23T14:48:57.394Z,2.40
2023-04-23T14:51:27.303Z,1.80
2023-04-23T14:53:56.675Z,2.97
2023-04-23T14:56:24.743Z,3.27
2023-04-23T14:58:52.281Z,3.50
2023-04-23T15:01:19.985Z,3.07
2023-04-23T15:03:47.826Z,1.60
2023-04-23T15:06:15.642Z,2.27
2023-04-23T15:08:44.641Z,3.30
2023-04-23T15:11:14.041Z,3.27
2023-04-23T15:13:46.131Z,4.37
2023-04-23T15:16:29.041Z,1.50
2023-04-23T15:19:10.028Z,1.50
2023-04-23T15:21:37.990Z,1.37
2023-04-23T15:24:07.805Z,2.10
2023-04-23T15:26:36.346Z,1.63
2023-04-23T15:29:04.957Z,4.13
2023-04-23T15:31:32.728Z,2.20
2023-04-23T15:34:01.064Z,2.80
2023-04-23T15:36:28.813Z,4.93
2023-04-23T15:38:56.491Z,1.90
2023-04-23T15:41:27.075Z,1.83
2023-04-23T15:43:55.522Z,2.53
2023-04-23T15:46:23.165Z,2.30
2023-04-23T15:48:50.849Z,1.90
2023-04-23T15:51:18.639Z,3.03
2023-04-23T15:53:46.254Z,1.83
2023-04-23T15:56:13.894Z,0.67
2023-04-23T15:58:42.923Z,1.50
2023-04-23T16:01:11.285Z,2.67
2023-04-23T16:03:39.148Z,2.53
2023-04-23T16:06:07.156Z,1.73
2023-04-23T16:08:34.856Z,1.80
2023-04-23T16:11:03.386Z,2.70
2023-04-23T16:13:31.113Z,4.07
2023-04-23T16:16:00.214Z,3.20
2023-04-23T16:18:27.948Z,3.30
2023-04-23T16:20:55.627Z,1.80
2023-04-23T16:23:23.239Z,0.97
2023-04-23T16:25:51.116Z,1.03
2023-04-23T16:28:19.297Z,1.63
2023-04-23T16:30:47.421Z,0.73
2023-04-23T16:33:16.763Z,1.07
2023-04-23T16:35:44.790Z,1.83
2023-04-23T16:38:12.900Z,0.60
2023-04-23T16:40:40.586Z,1.13
2023-04-23T16:43:08.393Z,0.83
2023-04-23T16:45:36.435Z,2.73
2023-04-23T16:48:04.532Z,0.80
2023-04-23T16:50:33.698Z,1.23
2023-04-23T16:53:02.210Z,1.90
2023-04-23T16:55:30.384Z,1.50
2023-04-23T16:57:58.398Z,1.57
2023-04-23T17:00:26.551Z,1.00
2023-04-23T17:02:54.681Z,1.00
2023-04-23T17:05:24.112Z,1.37
2023-04-23T17:07:53.889Z,1.40
2023-04-23T17:10:21.639Z,3.40
2023-04-23T17:12:53.854Z,2.43
2023-04-23T17:15:22.605Z,0.90
2023-04-23T17:17:50.504Z,1.33
2023-04-23T17:20:18.648Z,2.87
2023-04-23T17:22:48.139Z,1.73
2023-04-23T17:25:17.514Z,1.20
2023-04-23T17:27:45.875Z,1.90
2023-04-23T17:30:14.241Z,2.30
2023-04-23T17:32:41.863Z,0.80
2023-04-23T17:35:10.991Z,1.50
2023-04-23T17:37:39.000Z,0.70
2023-04-23T17:40:08.128Z,0.90
2023-04-23T17:42:37.142Z,1.30
2023-04-23T17:45:05.875Z,1.27
2023-04-23T17:47:33.521Z,3.17
2023-04-23T17:50:01.117Z,1.83
2023-04-23T17:52:28.746Z,1.00
2023-04-23T17:54:56.697Z,1.00
2023-04-23T17:57:24.339Z,1.03
2023-04-23T17:59:53.246Z,1.43
2023-04-23T18:02:21.217Z,0.87
2023-04-23T18:04:48.850Z,0.80
2023-04-23T18:07:16.514Z,2.07
2023-04-23T18:09:44.107Z,1.13
2023-04-23T18:12:11.832Z,1.30
2023-04-23T18:14:39.417Z,0.83
2023-04-23T18:17:08.434Z,2.07
2023-04-23T18:19:36.024Z,2.70
2023-04-23T18:22:03.661Z,2.70
2023-04-23T18:24:31.245Z,2.70
2023-04-23T18:26:59.006Z,1.47
2023-04-23T18:29:29.332Z,0.60
2023-04-23T18:31:57.295Z,1.40
2023-04-23T18:34:26.330Z,1.30
2023-04-23T18:36:55.742Z,1.10
2023-04-23T18:39:23.454Z,1.57
2023-04-23T18:41:51.401Z,1.50
2023-04-23T18:44:19.292Z,1.17
2023-04-23T18:46:46.962Z,1.57
2023-04-23T18:49:41.307Z,1.50
2023-04-23T18:52:09.040Z,1.13
2023-04-23T18:54:36.642Z,1.53
2023-04-23T18:57:04.349Z,4.43
2023-04-23T18:59:34.827Z,1.43
2023-04-23T19:02:03.117Z,1.50
2023-04-23T19:04:31.931Z,1.20
2023-04-23T19:07:01.286Z,1.23
2023-04-23T19:09:28.959Z,1.37
2023-04-23T19:11:56.692Z,1.33
2023-04-23T19:14:24.261Z,1.90
2023-04-23T19:16:51.903Z,1.50
2023-04-23T19:19:19.567Z,0.90
2023-04-23T19:21:47.192Z,1.43
2023-04-23T19:24:16.127Z,1.20
2023-04-23T19:26:45.675Z,2.13
2023-04-23T19:29:13.317Z,1.47
2023-04-23T19:31:40.914Z,1.40
2023-04-23T19:34:08.614Z,3.10
2023-04-23T19:36:36.241Z,1.57
2023-04-23T19:39:03.797Z,1.20
2023-04-23T19:41:32.776Z,2.17
2023-04-23T19:44:00.364Z,1.30
2023-04-23T19:46:27.947Z,1.63
2023-04-23T19:48:55.953Z,1.20
2023-04-23T19:51:24.855Z,1.37
2023-04-23T19:53:53.903Z,1.43
2023-04-23T19:56:22.940Z,2.30
2023-04-23T19:58:51.898Z,1.43
2023-04-23T20:01:19.725Z,1.57
2023-04-23T20:03:50.756Z,1.33
2023-04-23T20:06:18.561Z,2.50
2023-04-23T20:09:01.964Z,1.43
2023-04-23T20:11:29.743Z,1.83
2023-04-23T20:13:58.718Z,1.70
2023-04-23T20:16:26.398Z,2.37
2023-04-23T20:18:55.428Z,1.40
2023-04-23T20:21:23.388Z,1.97
2023-04-23T20:23:53.132Z,2.27
2023-04-23T20:26:21.607Z,1.70
2023-04-23T20:28:50.126Z,1.20
2023-04-23T20:31:21.162Z,2.83
2023-04-23T20:33:48.907Z,1.87
2023-04-23T20:36:16.891Z,1.70
2023-04-23T20:38:44.850Z,1.97
2023-04-23T20:41:12.675Z,1.20
2023-04-23T20:43:40.474Z,0.90
2023-04-23T20:46:10.169Z,1.73
2023-04-23T20:48:39.366Z,1.53
2023-04-23T20:51:11.114Z,3.20
2023-04-23T20:53:39.010Z,0.97
2023-04-23T20:56:07.090Z,2.87
2023-04-23T20:58:36.302Z,1.20
2023-04-23T21:01:07.258Z,1.23
2023-04-23T21:03:36.985Z,1.53
2023-04-23T21:06:07.773Z,1.43
2023-04-23T21:08:37.828Z,1.33
2023-04-23T21:11:09.922Z,1.30
2023-04-23T21:13:38.612Z,1.30
2023-04-23T21:16:06.720Z,2.97
2023-04-23T21:18:34.857Z,1.07
2023-04-23T21:21:03.071Z,1.13
2023-04-23T21:23:32.411Z,2.50
2023-04-23T21:26:00.318Z,1.33
2023-04-23T21:28:28.282Z,10.03
2023-04-23T21:30:56.973Z,0.97
2023-04-23T21:33:25.805Z,3.23
2023-04-23T21:35:54.633Z,1.17
2023-04-23T21:38:22.325Z,2.43
2023-04-23T21:40:51.615Z,0.77
2023-04-23T21:43:19.829Z,1.03
2023-04-23T21:45:47.990Z,1.47
2023-04-23T21:48:15.924Z,1.50
2023-04-23T21:50:43.891Z,2.40
2023-04-23T21:53:13.246Z,4.13
2023-04-23T21:55:41.350Z,2.20
2023-04-23T22:00:41.533Z,4.20
2023-04-23T22:03:11.426Z,2.17
2023-04-23T22:05:39.608Z,2.43
2023-04-23T22:08:07.895Z,1.70
2023-04-23T22:10:38.492Z,4.10
2023-04-23T22:13:06.392Z,2.80
2023-04-23T22:15:35.482Z,1.40
2023-04-23T22:18:03.196Z,2.23
2023-04-23T22:20:31.554Z,1.47
2023-04-23T22:22:59.287Z,2.20
2023-04-23T22:25:27.262Z,2.33
2023-04-23T22:27:55.012Z,1.90
2023-04-23T22:30:22.640Z,4.00
2023-04-23T22:32:51.794Z,2.33
2023-04-23T22:35:19.965Z,2.60
2023-04-23T22:37:47.728Z,2.40
2023-04-23T22:40:15.446Z,1.60
2023-04-23T22:42:43.401Z,1.60
2023-04-23T22:45:11.592Z,1.30
2023-04-23T22:47:39.374Z,1.47
2023-04-23T22:50:09.979Z,1.60
2023-04-23T22:52:37.861Z,2.67
2023-04-23T22:55:06.364Z,3.23
2023-04-23T22:57:34.138Z,2.50
2023-04-23T23:00:01.965Z,1.47
2023-04-23T23:02:29.723Z,2.27
2023-04-23T23:04:57.644Z,1.70
2023-04-23T23:07:26.747Z,3.60
2023-04-23T23:09:54.585Z,2.80
2023-04-23T23:12:22.402Z,1.47
2023-04-23T23:14:50.202Z,1.93
2023-04-23T23:17:17.829Z,2.33
2023-04-23T23:19:45.629Z,1.60
2023-04-23T23:22:13.325Z,1.77
2023-04-23T23:24:42.360Z,1.53
2023-04-23T23:27:10.135Z,1.80
2023-04-23T23:29:37.915Z,1.60
2023-04-23T23:32:05.820Z,1.83
2023-04-23T23:34:33.661Z,3.77
2023-04-23T23:37:01.497Z,1.80
2023-04-23T23:39:29.136Z,2.33
2023-04-23T23:41:59.821Z,2.17
2023-04-23T23:44:27.696Z,1.20
2023-04-23T23:46:55.557Z,4.23
2023-04-23T23:49:25.000Z,1.57
2023-04-23T23:51:52.988Z,4.57
2023-04-23T23:54:21.206Z,2.07
2023-04-23T23:56:49.051Z,1.10
2023-04-23T23:59:18.059Z,1.40
